Time;durP1;ratioP1;P1;durP2;ratioP2;P2;SDS_P1;SDS_P2;PMS_P1;PMS_P2;Temp;Humidity;BMP_temperature;BMP_pressure;BME280_temperature;BME280_humidity;BME280_pressure;Samples;Min_cycle;Max_cycle;Signal;HPM_P1;HPM_P2
2022/04/03 00:00:34;;;;;;;21.55;10.18;;;;;;;;;;4999341;28;20057;-77
2022/04/03 00:03:00;;;;;;;20.58;10.98;;;;;;;;;;5016443;28;20042;-76
2022/04/03 00:05:27;;;;;;;20.35;10.68;;;;;;;;;;5016462;28;20030;-76
2022/04/03 00:07:55;;;;;;;21.02;9.98;;;;;;;;;;4999263;28;20077;-77
2022/04/03 00:10:22;;;;;;;22.15;10.95;;;;;;;;;;4983219;28;20396;-76
2022/04/03 00:12:49;;;;;;;23.65;10.32;;;;;;;;;;5016053;28;20093;-75
2022/04/03 00:15:38;;;;;;;19.23;9.50;;;;;;;;;;5015063;28;20102;-75
2022/04/03 00:18:04;;;;;;;19.27;9.25;;;;;;;;;;4998093;28;20026;-76
2022/04/03 00:20:31;;;;;;;22.90;9.73;;;;;;;;;;5001917;28;20037;-74
2022/04/03 00:23:01;;;;;;;20.85;9.48;;;;;;;;;;5003400;28;20019;-74
2022/04/03 00:25:29;;;;;;;23.08;9.70;;;;;;;;;;5002361;28;20041;-75
2022/04/03 00:27:56;;;;;;;18.63;9.55;;;;;;;;;;5000482;28;20042;-77
2022/04/03 00:30:22;;;;;;;20.95;9.00;;;;;;;;;;4999989;28;20023;-76
2022/04/03 00:32:49;;;;;;;15.85;8.70;;;;;;;;;;4986725;28;20022;-74
2022/04/03 00:35:16;;;;;;;16.25;8.65;;;;;;;;;;4987188;28;20034;-74
2022/04/03 00:37:43;;;;;;;23.05;9.82;;;;;;;;;;5003361;28;20043;-74
2022/04/03 00:40:12;;;;;;;17.00;9.05;;;;;;;;;;5019638;28;20010;-74
2022/04/03 00:42:55;;;;;;;18.77;9.82;;;;;;;;;;5018014;28;20031;-75
2022/04/03 00:45:22;;;;;;;20.80;9.52;;;;;;;;;;4999558;28;20041;-74
2022/04/03 00:47:50;;;;;;;24.55;10.23;;;;;;;;;;5019525;28;20026;-74
2022/04/03 00:50:16;;;;;;;22.85;9.75;;;;;;;;;;5003068;28;20015;-74
2022/04/03 00:52:43;;;;;;;21.88;10.20;;;;;;;;;;5002824;28;20025;-74
2022/04/03 00:55:13;;;;;;;18.58;9.75;;;;;;;;;;4986548;28;20037;-74
2022/04/03 00:57:43;;;;;;;17.60;9.23;;;;;;;;;;5002774;28;20046;-73
2022/04/03 01:00:09;;;;;;;19.30;9.90;;;;;;;;;;5002621;28;20019;-74
2022/04/03 01:02:37;;;;;;;18.45;9.60;;;;;;;;;;5019194;28;20026;-74
2022/04/03 01:05:04;;;;;;;18.42;9.35;;;;;;;;;;5019188;28;20014;-74
2022/04/03 01:07:30;;;;;;;20.60;10.13;;;;;;;;;;4986445;28;20022;-73
2022/04/03 01:09:56;;;;;;;17.17;9.90;;;;;;;;;;5002655;28;20011;-73
2022/04/03 01:12:22;;;;;;;18.50;8.60;;;;;;;;;;5018814;28;20093;-74
2022/04/03 01:14:49;;;;;;;15.45;8.02;;;;;;;;;;5019050;28;20062;-74
2022/04/03 01:17:15;;;;;;;15.80;8.52;;;;;;;;;;5002381;28;20014;-73
2022/04/03 01:19:42;;;;;;;19.25;9.60;;;;;;;;;;5002374;28;20019;-73
2022/04/03 01:22:12;;;;;;;16.40;8.68;;;;;;;;;;5018552;28;20032;-74
2022/04/03 01:24:42;;;;;;;18.65;8.55;;;;;;;;;;4986016;28;20037;-74
2022/04/03 01:27:10;;;;;;;15.38;8.15;;;;;;;;;;4998025;28;20166;-76
2022/04/03 01:29:37;;;;;;;17.25;8.18;;;;;;;;;;5001809;28;20030;-73
2022/04/03 01:32:05;;;;;;;17.35;9.38;;;;;;;;;;4985953;28;20011;-74
2022/04/03 01:34:38;;;;;;;16.05;8.70;;;;;;;;;;4986033;28;20021;-74
2022/04/03 01:37:04;;;;;;;18.85;8.98;;;;;;;;;;4986250;28;20053;-75
2022/04/03 01:39:31;;;;;;;22.33;9.13;;;;;;;;;;5001752;28;20018;-74
2022/04/03 01:41:57;;;;;;;18.10;9.18;;;;;;;;;;5001715;28;20037;-75
2022/04/03 01:44:23;;;;;;;16.52;8.80;;;;;;;;;;5001660;28;20106;-74
2022/04/03 01:46:49;;;;;;;13.60;8.23;;;;;;;;;;5001635;28;20018;-78
2022/04/03 01:49:15;;;;;;;17.40;8.82;;;;;;;;;;5001495;28;20082;-75
2022/04/03 01:51:41;;;;;;;18.90;9.02;;;;;;;;;;5018426;28;20022;-74
2022/04/03 01:54:07;;;;;;;20.30;9.30;;;;;;;;;;5001511;28;20037;-74
2022/04/03 01:56:35;;;;;;;18.73;9.73;;;;;;;;;;5018182;28;20022;-74
2022/04/03 01:59:04;;;;;;;18.17;9.45;;;;;;;;;;5018257;28;20053;-75
2022/04/03 02:01:34;;;;;;;18.35;9.15;;;;;;;;;;5018549;28;20041;-74
2022/04/03 02:04:01;;;;;;;21.73;8.93;;;;;;;;;;5002128;28;20038;-73
2022/04/03 02:06:27;;;;;;;20.77;8.95;;;;;;;;;;5001989;28;20018;-74
2022/04/03 02:08:56;;;;;;;16.17;9.68;;;;;;;;;;5001971;28;20034;-74
2022/04/03 02:11:22;;;;;;;20.08;9.20;;;;;;;;;;5018856;28;20014;-74
2022/04/03 02:13:48;;;;;;;23.20;8.52;;;;;;;;;;5018825;28;20010;-74
2022/04/03 02:16:15;;;;;;;19.77;8.95;;;;;;;;;;5018768;28;20030;-74
2022/04/03 02:18:41;;;;;;;16.60;8.43;;;;;;;;;;5002016;28;20015;-74
2022/04/03 02:21:07;;;;;;;19.45;9.05;;;;;;;;;;5018728;28;20021;-75
2022/04/03 02:23:34;;;;;;;23.50;9.15;;;;;;;;;;5001831;28;20024;-73
2022/04/03 02:26:02;;;;;;;24.33;8.98;;;;;;;;;;5001848;28;20019;-74
2022/04/03 02:28:28;;;;;;;22.48;8.98;;;;;;;;;;5018395;28;20080;-75
2022/04/03 02:30:54;;;;;;;24.70;9.27;;;;;;;;;;5018611;28;20026;-74
2022/04/03 02:33:20;;;;;;;15.73;8.45;;;;;;;;;;5001764;28;20038;-74
2022/04/03 02:35:46;;;;;;;20.35;9.13;;;;;;;;;;5018487;28;20011;-74
2022/04/03 02:38:16;;;;;;;18.40;8.50;;;;;;;;;;5018529;28;20049;-74
2022/04/03 02:40:43;;;;;;;15.30;8.38;;;;;;;;;;5018043;28;20022;-75
2022/04/03 02:43:09;;;;;;;17.98;8.38;;;;;;;;;;5018487;28;20006;-74
2022/04/03 02:45:35;;;;;;;21.40;8.45;;;;;;;;;;5001674;28;20028;-72
2022/04/03 02:48:01;;;;;;;19.23;8.30;;;;;;;;;;5018435;28;20057;-73
2022/04/03 02:50:27;;;;;;;17.40;8.90;;;;;;;;;;5001670;28;20038;-73
2022/04/03 02:52:54;;;;;;;14.85;8.52;;;;;;;;;;5018259;28;20030;-73
2022/04/03 02:55:21;;;;;;;22.25;8.73;;;;;;;;;;5018432;28;20050;-73
2022/04/03 02:57:47;;;;;;;17.10;8.93;;;;;;;;;;5018243;28;20034;-72
2022/04/03 03:00:14;;;;;;;17.77;7.97;;;;;;;;;;5001523;28;20014;-72
2022/04/03 03:02:44;;;;;;;14.98;7.78;;;;;;;;;;5018108;28;20018;-71
2022/04/03 03:05:10;;;;;;;21.52;8.15;;;;;;;;;;5018149;28;20037;-72
2022/04/03 03:07:39;;;;;;;18.75;7.75;;;;;;;;;;5001218;28;20030;-72
2022/04/03 03:10:07;;;;;;;22.23;8.80;;;;;;;;;;5001419;28;20007;-72
2022/04/03 03:12:33;;;;;;;19.15;9.45;;;;;;;;;;5018025;28;20045;-72
2022/04/03 03:14:59;;;;;;;20.83;8.95;;;;;;;;;;5018001;28;20010;-72
2022/04/03 03:17:26;;;;;;;16.13;7.93;;;;;;;;;;5018033;28;20034;-73
2022/04/03 03:19:52;;;;;;;24.05;10.13;;;;;;;;;;5018107;28;20046;-72
2022/04/03 03:22:19;;;;;;;21.20;8.00;;;;;;;;;;5017923;28;20007;-72
2022/04/03 03:24:45;;;;;;;22.20;7.90;;;;;;;;;;5017797;28;20094;-72
2022/04/03 03:27:11;;;;;;;16.30;7.65;;;;;;;;;;5001125;28;20022;-72
2022/04/03 03:29:37;;;;;;;21.75;8.43;;;;;;;;;;5001140;28;20030;-72
2022/04/03 03:32:03;;;;;;;18.05;7.55;;;;;;;;;;5018008;28;20023;-71
2022/04/03 03:34:29;;;;;;;16.40;7.60;;;;;;;;;;5018006;28;20021;-71
2022/04/03 03:36:55;;;;;;;15.05;7.85;;;;;;;;;;5017983;28;20018;-74
2022/04/03 03:39:24;;;;;;;28.50;7.28;;;;;;;;;;5017959;28;20018;-74
2022/04/03 03:41:50;;;;;;;24.65;8.30;;;;;;;;;;5017929;28;20022;-74
2022/04/03 03:44:16;;;;;;;19.17;8.13;;;;;;;;;;5001196;28;20010;-74
2022/04/03 03:46:42;;;;;;;18.45;7.93;;;;;;;;;;5000848;28;20030;-74
2022/04/03 03:49:09;;;;;;;18.33;8.60;;;;;;;;;;5001042;28;20066;-75
2022/04/03 03:51:38;;;;;;;16.35;7.55;;;;;;;;;;5001044;28;20018;-74
2022/04/03 03:54:04;;;;;;;18.98;8.18;;;;;;;;;;5002724;28;20042;-74
2022/04/03 03:56:31;;;;;;;20.25;8.30;;;;;;;;;;5001275;28;20010;-72
2022/04/03 03:58:57;;;;;;;18.13;7.78;;;;;;;;;;5004659;28;20022;-74
2022/04/03 04:03:56;;;;;;;16.20;7.70;;;;;;;;;;5000302;28;20042;-74
2022/04/03 04:06:23;;;;;;;16.02;7.93;;;;;;;;;;5001238;28;20038;-74
2022/04/03 04:08:51;;;;;;;13.82;7.25;;;;;;;;;;5001068;28;20050;-74
2022/04/03 04:11:34;;;;;;;20.88;7.75;;;;;;;;;;5001367;28;20054;-74
2022/04/03 04:22:02;;;;;;;19.55;7.88;;;;;;;;;;5631091;22;20105;-74
2022/04/03 04:24:28;;;;;;;16.50;7.15;;;;;;;;;;4987967;28;20035;-74
2022/04/03 04:26:55;;;;;;;18.92;7.25;;;;;;;;;;5003864;28;20033;-75
2022/04/03 04:29:21;;;;;;;16.92;7.40;;;;;;;;;;5020823;28;20018;-74
2022/04/03 04:31:55;;;;;;;18.13;7.70;;;;;;;;;;4985695;28;20042;-75
2022/04/03 04:34:21;;;;;;;19.58;8.18;;;;;;;;;;5047739;23;20038;-76
2022/04/03 04:36:47;;;;;;;15.00;7.18;;;;;;;;;;4987944;28;20045;-74
2022/04/03 04:39:14;;;;;;;13.68;6.78;;;;;;;;;;4987842;28;20010;-73
2022/04/03 04:41:41;;;;;;;16.73;7.45;;;;;;;;;;5003963;28;20045;-75
2022/04/03 04:44:07;;;;;;;16.35;6.95;;;;;;;;;;5004019;28;20025;-75
2022/04/03 04:46:35;;;;;;;15.20;7.03;;;;;;;;;;5004093;28;20031;-80
2022/04/03 04:56:48;;;;;;;18.65;6.90;;;;;;;;;;5954340;22;20034;-74
2022/04/03 04:59:18;;;;;;;15.75;6.70;;;;;;;;;;5020451;28;20018;-72
2022/04/03 05:01:46;;;;;;;17.65;7.20;;;;;;;;;;5003473;28;20074;-73
2022/04/03 05:04:13;;;;;;;17.42;7.43;;;;;;;;;;5019733;28;20070;-73
2022/04/03 05:06:43;;;;;;;14.85;6.88;;;;;;;;;;5003213;28;20107;-73
2022/04/03 05:09:13;;;;;;;15.55;6.82;;;;;;;;;;5004121;28;20045;-73
2022/04/03 05:11:41;;;;;;;18.33;7.32;;;;;;;;;;5003116;28;20021;-73
2022/04/03 05:14:10;;;;;;;15.73;7.03;;;;;;;;;;5019608;28;20022;-74
2022/04/03 05:16:37;;;;;;;14.65;7.18;;;;;;;;;;5002358;28;20034;-74
2022/04/03 05:19:03;;;;;;;21.05;7.50;;;;;;;;;;5002405;28;20118;-73
2022/04/03 05:21:30;;;;;;;15.75;6.70;;;;;;;;;;5019043;28;20086;-73
2022/04/03 05:23:56;;;;;;;15.55;7.63;;;;;;;;;;4986143;28;20018;-74
2022/04/03 05:26:22;;;;;;;16.27;7.28;;;;;;;;;;5002169;28;20026;-74
2022/04/03 05:28:48;;;;;;;22.30;8.00;;;;;;;;;;5002053;28;20094;-74
2022/04/03 05:31:14;;;;;;;17.33;7.35;;;;;;;;;;5018797;28;20311;-74
2022/04/03 05:33:41;;;;;;;15.88;7.32;;;;;;;;;;5018639;28;20046;-73
2022/04/03 05:36:07;;;;;;;16.02;6.70;;;;;;;;;;5001727;28;20025;-74
2022/04/03 05:38:34;;;;;;;15.90;6.60;;;;;;;;;;5002174;28;20018;-74
2022/04/03 05:41:00;;;;;;;18.00;7.03;;;;;;;;;;5018505;28;20045;-73
2022/04/03 05:43:26;;;;;;;13.48;7.03;;;;;;;;;;5001846;28;20057;-73
2022/04/03 05:45:52;;;;;;;13.43;6.70;;;;;;;;;;5018773;28;20022;-74
2022/04/03 05:48:18;;;;;;;15.65;6.30;;;;;;;;;;5002450;28;20026;-72
2022/04/03 05:50:45;;;;;;;16.10;6.75;;;;;;;;;;5002469;28;20035;-74
2022/04/03 05:53:12;;;;;;;13.13;6.68;;;;;;;;;;5002343;28;20011;-73
2022/04/03 05:55:38;;;;;;;15.65;6.75;;;;;;;;;;5002351;28;20022;-73
2022/04/03 05:58:06;;;;;;;15.98;6.60;;;;;;;;;;5002174;28;20031;-75
2022/04/03 06:00:34;;;;;;;16.08;6.47;;;;;;;;;;5001797;28;20090;-73
2022/04/03 06:03:04;;;;;;;14.32;6.00;;;;;;;;;;5018871;28;20041;-73
2022/04/03 06:05:34;;;;;;;15.90;5.93;;;;;;;;;;5018944;28;20023;-73
2022/04/03 06:08:01;;;;;;;16.60;6.10;;;;;;;;;;5018633;28;20029;-73
2022/04/03 06:10:27;;;;;;;10.15;5.78;;;;;;;;;;5018680;28;20033;-73
2022/04/03 06:12:59;;;;;;;13.55;5.93;;;;;;;;;;5004037;28;20034;-77
2022/04/03 06:15:26;;;;;;;11.50;5.80;;;;;;;;;;4997620;28;20387;-79
2022/04/03 06:17:52;;;;;;;11.13;5.32;;;;;;;;;;4997355;28;20030;-79
2022/04/03 06:20:19;;;;;;;18.48;5.72;;;;;;;;;;5000941;28;20026;-76
2022/04/03 06:22:45;;;;;;;13.93;5.88;;;;;;;;;;4999110;28;20018;-79
2022/04/03 06:25:12;;;;;;;15.70;5.68;;;;;;;;;;5003308;28;20099;-78
2022/04/03 06:27:38;;;;;;;19.63;6.18;;;;;;;;;;4983707;28;20030;-79
2022/04/03 06:30:04;;;;;;;14.13;5.22;;;;;;;;;;4998991;28;20023;-79
2022/04/03 06:32:30;;;;;;;14.88;5.35;;;;;;;;;;5000143;28;20033;-82
2022/04/03 06:34:57;;;;;;;11.05;4.97;;;;;;;;;;4984604;28;20109;-80
2022/04/03 06:37:23;;;;;;;9.80;4.60;;;;;;;;;;5001692;28;20030;-85
2022/04/03 06:39:49;;;;;;;15.20;5.30;;;;;;;;;;4985107;28;20084;-81
2022/04/03 06:42:15;;;;;;;16.42;5.47;;;;;;;;;;4988931;28;20042;-82
2022/04/03 06:44:41;;;;;;;13.30;5.63;;;;;;;;;;5005706;28;20101;-80
2022/04/03 06:47:07;;;;;;;10.98;5.50;;;;;;;;;;5006856;28;20038;-79
2022/04/03 06:49:33;;;;;;;13.90;5.22;;;;;;;;;;5010184;28;20026;-81
2022/04/03 06:52:00;;;;;;;12.73;5.03;;;;;;;;;;5006077;28;20030;-83
2022/04/03 06:54:26;;;;;;;9.25;4.60;;;;;;;;;;5002502;28;20065;-85
2022/04/03 06:56:53;;;;;;;12.95;5.18;;;;;;;;;;5001158;28;20042;-78
2022/04/03 06:59:19;;;;;;;15.18;5.40;;;;;;;;;;5008029;28;20053;-81
2022/04/03 07:01:45;;;;;;;11.80;5.20;;;;;;;;;;4982320;28;20027;-78
2022/04/03 07:04:11;;;;;;;12.70;5.25;;;;;;;;;;4999808;28;20168;-74
2022/04/03 07:06:37;;;;;;;11.77;4.78;;;;;;;;;;4980709;28;20034;-77
2022/04/03 07:09:03;;;;;;;10.65;4.35;;;;;;;;;;5000302;28;20036;-77
2022/04/03 07:11:29;;;;;;;16.38;5.07;;;;;;;;;;5002174;28;20019;-78
2022/04/03 07:13:55;;;;;;;10.70;4.55;;;;;;;;;;5001116;28;20065;-78
2022/04/03 07:16:21;;;;;;;12.05;4.05;;;;;;;;;;4997843;28;20011;-74
2022/04/03 07:18:47;;;;;;;12.57;3.95;;;;;;;;;;5017114;28;20034;-75
2022/04/03 07:21:13;;;;;;;9.93;4.22;;;;;;;;;;5018926;28;20018;-78
2022/04/03 07:23:40;;;;;;;10.48;4.22;;;;;;;;;;5021527;28;20109;-79
2022/04/03 07:26:06;;;;;;;13.43;4.03;;;;;;;;;;5025935;28;20247;-78
2022/04/03 07:28:32;;;;;;;11.00;4.30;;;;;;;;;;5033081;28;20053;-75
2022/04/03 07:30:58;;;;;;;16.20;4.40;;;;;;;;;;5035913;28;20030;-80
2022/04/03 07:33:24;;;;;;;8.32;3.42;;;;;;;;;;5028083;28;20579;-76
2022/04/03 07:35:51;;;;;;;6.78;3.53;;;;;;;;;;5028967;28;20113;-76
2022/04/03 07:38:18;;;;;;;14.57;4.60;;;;;;;;;;5027923;28;20057;-76
2022/04/03 07:40:45;;;;;;;11.23;4.72;;;;;;;;;;5026823;28;20065;-79
2022/04/03 07:43:11;;;;;;;10.30;4.35;;;;;;;;;;5010973;28;20030;-78
2022/04/03 07:45:37;;;;;;;10.57;4.68;;;;;;;;;;5021728;28;20053;-78
2022/04/03 07:48:03;;;;;;;7.75;3.40;;;;;;;;;;5026095;28;20034;-77
2022/04/03 07:50:30;;;;;;;8.63;4.20;;;;;;;;;;5021924;28;20030;-78
2022/04/03 07:52:55;;;;;;;9.77;3.97;;;;;;;;;;5021584;28;20037;-76
2022/04/03 07:55:21;;;;;;;8.65;3.78;;;;;;;;;;5019960;28;20022;-76
2022/04/03 07:57:47;;;;;;;9.82;4.15;;;;;;;;;;5016131;28;20128;-75
2022/04/03 08:00:14;;;;;;;12.40;5.03;;;;;;;;;;5017971;28;20022;-76
2022/04/03 08:02:40;;;;;;;10.52;4.88;;;;;;;;;;5019800;28;20158;-77
2022/04/03 08:05:10;;;;;;;12.75;4.40;;;;;;;;;;5003889;28;20026;-76
2022/04/03 08:07:39;;;;;;;12.75;4.30;;;;;;;;;;4993004;28;20036;-78
2022/04/03 08:10:08;;;;;;;13.63;3.55;;;;;;;;;;5023243;28;20037;-76
2022/04/03 08:12:34;;;;;;;8.70;3.40;;;;;;;;;;5018181;28;20025;-77
2022/04/03 08:15:00;;;;;;;8.20;3.63;;;;;;;;;;5000793;28;20036;-76
2022/04/03 08:17:26;;;;;;;9.23;3.67;;;;;;;;;;5018729;28;20030;-75
2022/04/03 08:19:52;;;;;;;12.02;5.55;;;;;;;;;;5019290;28;20056;-76
2022/04/03 08:22:21;;;;;;;12.52;4.03;;;;;;;;;;5001897;28;20041;-79
2022/04/03 08:24:48;;;;;;;12.93;3.85;;;;;;;;;;4983543;28;20037;-75
2022/04/03 08:27:14;;;;;;;8.82;3.38;;;;;;;;;;5016259;28;20046;-76
2022/04/03 08:29:40;;;;;;;8.88;3.15;;;;;;;;;;5023875;28;20495;-76
2022/04/03 08:32:10;;;;;;;7.63;3.15;;;;;;;;;;5015978;28;20041;-75
2022/04/03 08:34:36;;;;;;;5.72;3.03;;;;;;;;;;5023368;28;20026;-79
2022/04/03 08:37:02;;;;;;;15.20;4.28;;;;;;;;;;5016107;28;20026;-76
2022/04/03 08:39:28;;;;;;;7.43;3.53;;;;;;;;;;5015785;28;20037;-78
2022/04/03 08:41:55;;;;;;;10.82;3.70;;;;;;;;;;5007080;28;20491;-76
2022/04/03 08:44:22;;;;;;;8.32;3.88;;;;;;;;;;5021305;28;20542;-76
2022/04/03 08:46:48;;;;;;;8.95;3.47;;;;;;;;;;5013882;28;20022;-74
2022/04/03 08:49:15;;;;;;;9.75;3.67;;;;;;;;;;5014343;28;20080;-74
2022/04/03 08:51:42;;;;;;;9.95;3.95;;;;;;;;;;4999030;28;20069;-79
2022/04/03 08:54:09;;;;;;;12.48;3.53;;;;;;;;;;5016240;28;20041;-79
2022/04/03 08:56:35;;;;;;;6.38;3.17;;;;;;;;;;5047900;22;20419;-76
2022/04/03 08:59:00;;;;;;;12.20;4.25;;;;;;;;;;5018115;28;20038;-75
2022/04/03 09:01:26;;;;;;;6.45;3.25;;;;;;;;;;5015984;28;20034;-74
2022/04/03 09:03:52;;;;;;;8.32;3.28;;;;;;;;;;5014768;28;20095;-75
2022/04/03 09:06:21;;;;;;;10.77;3.63;;;;;;;;;;5014282;28;20684;-76
2022/04/03 09:08:48;;;;;;;11.23;3.47;;;;;;;;;;4996858;28;20125;-76
2022/04/03 09:11:15;;;;;;;9.32;3.30;;;;;;;;;;5016001;28;20028;-73
2022/04/03 09:13:41;;;;;;;11.00;2.78;;;;;;;;;;5013950;28;20040;-76
2022/04/03 09:16:08;;;;;;;15.23;3.15;;;;;;;;;;5015377;28;20436;-75
2022/04/03 09:18:43;;;;;;;16.70;3.63;;;;;;;;;;5019559;28;20029;-79
2022/04/03 09:21:16;;;;;;;11.55;3.10;;;;;;;;;;5016050;28;20025;-78
2022/04/03 09:24:02;;;;;;;10.60;2.88;;;;;;;;;;4999938;28;20061;-75
2022/04/03 09:26:28;;;;;;;11.65;2.92;;;;;;;;;;5023716;28;20029;-75
2022/04/03 09:29:07;;;;;;;11.18;2.58;;;;;;;;;;5024331;28;20022;-77
2022/04/03 09:31:33;;;;;;;14.52;3.45;;;;;;;;;;5018650;28;20098;-77
2022/04/03 09:34:00;;;;;;;10.57;3.30;;;;;;;;;;5019636;28;20034;-77
2022/04/03 09:36:29;;;;;;;18.85;4.07;;;;;;;;;;5017660;28;20080;-76
2022/04/03 09:39:10;;;;;;;13.30;3.45;;;;;;;;;;5025736;28;20026;-77
2022/04/03 09:41:55;;;;;;;11.20;3.13;;;;;;;;;;5021505;28;20021;-80
2022/04/03 09:44:26;;;;;;;13.30;3.13;;;;;;;;;;5025298;28;20049;-77
2022/04/03 09:47:14;;;;;;;13.27;2.58;;;;;;;;;;5002129;28;20098;-77
2022/04/03 09:49:40;;;;;;;10.15;2.20;;;;;;;;;;5003046;28;20040;-76
2022/04/03 09:52:06;;;;;;;13.55;2.33;;;;;;;;;;5018187;28;20103;-79
2022/04/03 09:54:32;;;;;;;8.05;1.98;;;;;;;;;;4998505;28;20026;-78
2022/04/03 09:57:18;;;;;;;17.63;2.90;;;;;;;;;;5016377;28;20033;-78
2022/04/03 09:59:54;;;;;;;12.77;2.50;;;;;;;;;;5015763;28;20088;-77
2022/04/03 10:02:20;;;;;;;10.70;2.22;;;;;;;;;;5002973;28;20036;-75
2022/04/03 10:04:47;;;;;;;8.90;2.15;;;;;;;;;;5016631;28;20022;-77
2022/04/03 10:07:14;;;;;;;10.27;1.73;;;;;;;;;;5020835;28;20017;-77
2022/04/03 10:09:50;;;;;;;12.60;2.30;;;;;;;;;;5020416;28;20076;-76
2022/04/03 10:12:20;;;;;;;11.13;1.80;;;;;;;;;;5005884;28;20029;-77
2022/04/03 10:14:49;;;;;;;12.07;3.42;;;6.70;53.70;;;;;;5030048;28;20057;-76
2022/04/03 10:17:16;;;;;;;12.98;1.92;;;11.50;99.90;;;;;;5018009;28;20121;-75
2022/04/03 10:19:42;;;;;;;8.38;2.40;;;11.20;99.90;;;;;;5013563;28;20080;-76
2022/04/03 10:22:28;;;;;;;6.40;2.08;;;10.90;99.90;;;;;;5025128;28;20030;-78
2022/04/03 10:24:58;;;;;;;12.18;2.35;;;10.60;99.90;;;;;;5017823;28;20084;-77
2022/04/03 10:27:32;;;;;;;6.30;1.67;;;10.20;99.90;;;;;;5018357;28;20037;-76
2022/04/03 10:29:59;;;;;;;9.25;2.20;;;9.90;99.90;;;;;;4995402;28;20029;-77
2022/04/03 10:32:30;;;;;;;15.23;3.28;;;9.60;99.90;;;;;;5015468;28;20066;-77
2022/04/03 10:34:58;;;;;;;12.27;2.50;;;9.30;99.90;;;;;;5014740;28;20470;-77
2022/04/03 10:37:29;;;;;;;7.70;1.70;;;8.90;99.90;;;;;;5014723;28;20032;-76
2022/04/03 10:39:59;;;;;;;10.10;2.58;;;8.70;99.90;;;;;;5014236;28;20032;-76
2022/04/03 10:42:29;;;;;;;12.32;2.60;;;8.60;99.90;;;;;;5015573;28;20387;-74
2022/04/03 10:45:10;;;;;;;9.55;2.03;;;8.50;99.90;;;;;;5017895;28;20022;-74
2022/04/03 10:47:36;;;;;;;7.32;1.80;;;8.40;99.90;;;;;;5019148;28;20037;-78
2022/04/03 10:50:07;;;;;;;14.02;3.70;;;8.30;99.90;;;;;;5015753;28;20434;-78
2022/04/03 10:52:38;;;;;;;8.27;2.08;;;8.40;99.90;;;;;;5017734;28;20030;-76
2022/04/03 10:55:19;;;;;;;16.38;2.80;;;8.40;99.90;;;;;;5019456;28;20041;-76
2022/04/03 10:57:51;;;;;;;10.50;2.00;;;8.50;99.90;;;;;;5033201;28;20038;-77
2022/04/03 11:00:16;;;;;;;9.75;2.35;;;8.90;99.90;;;;;;5025268;28;20018;-78
2022/04/03 11:03:21;;;;;;;4.85;1.45;;;9.70;99.90;;;;;;5025410;28;20384;-78
2022/04/03 11:05:48;;;;;;;8.18;1.05;;;10.70;99.90;;;;;;5032373;28;20026;-75
2022/04/03 11:08:15;;;;;;;9.63;1.50;;;11.50;99.90;;;;;;4991384;28;20088;-76
2022/04/03 11:10:57;;;;;;;8.00;1.55;;;12.20;99.90;;;;;;5014391;28;20033;-79
2022/04/03 11:13:24;;;;;;;9.15;2.65;;;;;;;;;;5016980;28;20030;-80
2022/04/03 11:16:03;;;;;;;5.78;2.28;;;;;;;;;;5011064;28;20041;-73
2022/04/03 11:18:33;;;;;;;4.65;1.30;;;;;;;;;;5009456;28;20049;-77
2022/04/03 11:21:08;;;;;;;2.80;0.80;;;;;;;;;;5019125;28;20026;-78
2022/04/03 11:23:40;;;;;;;5.75;1.60;;;;;;;;;;5019718;28;20018;-74
2022/04/03 11:26:07;;;;;;;2.53;0.85;;;;;;;;;;5014558;28;20029;-79
2022/04/03 11:28:36;;;;;;;5.65;1.00;;;;;;;;;;5009397;28;20037;-77
2022/04/03 11:31:03;;;;;;;2.67;0.82;;;;;;;;;;5013812;28;20022;-76
2022/04/03 11:33:29;;;;;;;3.58;1.20;;;;;;;;;;5003741;28;20019;-76
2022/04/03 11:35:56;;;;;;;3.80;1.02;;;;;;;;;;5017308;28;20048;-76
2022/04/03 11:38:22;;;;;;;5.18;1.20;;;;;;;;;;4988866;28;20107;-77
2022/04/03 11:40:48;;;;;;;5.75;1.00;;;;;;;;;;5008452;28;20013;-78
2022/04/03 11:43:19;;;;;;;5.35;1.20;;;;;;;;;;5028523;28;20105;-74
2022/04/03 11:45:55;;;;;;;7.30;2.00;;;;;;;;;;5010834;28;20013;-76
2022/04/03 11:48:24;;;;;;;9.77;2.75;;;13.40;99.90;;;;;;4994805;28;20569;-75
2022/04/03 11:51:02;;;;;;;7.18;1.90;;;15.20;78.50;;;;;;4995612;28;20029;-77
2022/04/03 11:53:27;;;;;;;9.60;2.40;;;14.10;82.80;;;;;;5004083;28;20482;-78
2022/04/03 11:55:53;;;;;;;4.97;1.33;;;13.30;88.50;;;;;;5006177;28;20121;-75
2022/04/03 11:58:19;;;;;;;3.72;1.10;;;12.70;91.30;;;;;;5003220;28;20018;-77
2022/04/03 12:00:47;;;;;;;3.17;0.98;;;13.00;94.40;;;;;;5010558;28;20073;-75
2022/04/03 12:03:13;;;;;;;8.20;1.50;;;14.30;92.10;;;;;;5022735;22;20042;-76
2022/04/03 12:05:41;;;;;;;8.35;1.27;;;15.80;90.00;;;;;;5013471;28;20091;-76
2022/04/03 12:08:07;;;;;;;6.18;1.70;;;16.90;85.50;;;;;;5008251;28;20096;-74
2022/04/03 12:10:33;;;;;;;7.63;1.75;;;18.20;84.20;;;;;;4994165;28;20034;-75
2022/04/03 12:12:59;;;;;;;4.20;1.10;;;19.80;78.50;;;;;;5006113;28;20026;-75
2022/04/03 12:15:30;;;;;;;8.60;1.52;;;20.90;71.60;;;;;;5015490;28;20048;-77
2022/04/03 12:17:56;;;;;;;8.65;2.20;;;20.30;66.30;;;;;;5034250;28;20026;-75
2022/04/03 12:20:23;;;;;;;8.95;1.63;;;19.10;65.50;;;;;;5016290;28;20026;-77
2022/04/03 12:22:52;;;;;;;6.50;1.55;;;17.80;67.80;;;;;;5007591;28;20026;-79
2022/04/03 12:25:18;;;;;;;7.38;1.60;;;16.60;70.60;;;;;;5026047;28;20025;-78
2022/04/03 12:27:45;;;;;;;8.25;1.70;;;15.40;74.50;;;;;;5020513;28;20030;-77
2022/04/03 12:30:11;;;;;;;7.53;1.55;;;14.40;81.70;;;;;;5021723;28;20084;-81
2022/04/03 12:32:40;;;;;;;6.15;1.55;;;13.60;84.90;;;;;;5022998;28;20018;-78
2022/04/03 12:35:08;;;;;;;4.40;1.13;;;12.90;90.70;;;;;;5008364;28;20053;-75
2022/04/03 12:37:35;;;;;;;8.88;1.50;;;12.10;93.40;;;;;;5022433;28;20086;-75
2022/04/03 12:40:06;;;;;;;7.80;1.60;;;;;;;;;;5010879;28;20032;-79
2022/04/03 12:42:40;;;;;;;9.50;2.67;;;10.90;99.40;;;;;;5000927;28;20022;-76
2022/04/03 12:45:22;;;;;;;13.60;2.20;;;10.80;99.90;;;;;;5003215;28;20038;-80
2022/04/03 12:48:03;;;;;;;5.13;1.52;;;10.60;99.90;;;;;;5004657;28;20054;-77
2022/04/03 12:50:38;;;;;;;9.73;1.25;;;10.60;99.90;;;;;;5008371;28;20074;-76
2022/04/03 12:53:05;;;;;;;5.28;1.58;;;11.10;99.90;;;;;;5006518;28;20021;-77
2022/04/03 12:55:54;;;;;;;6.55;1.30;;;12.30;99.90;;;;;;5000287;28;20065;-78
2022/04/03 12:58:28;;;;;;;5.55;1.10;;;13.20;98.70;;;;;;4989478;28;20030;-78
2022/04/03 13:00:55;;;;;;;4.18;1.10;;;13.50;97.30;;;;;;5002162;28;20029;-79
2022/04/03 13:03:34;;;;;;;7.55;1.35;;;13.40;96.40;;;;;;5001200;28;20030;-79
2022/04/03 13:06:23;;;;;;;6.43;1.30;;;;;;;;;;4983986;28;20022;-78
2022/04/03 13:08:50;;;;;;;5.85;1.48;;;16.20;91.80;;;;;;4992082;28;20492;-76
2022/04/03 13:11:30;;;;;;;4.53;1.20;;;17.70;86.90;;;;;;5002801;28;20076;-77
2022/04/03 13:14:19;;;;;;;5.60;1.20;;;18.60;79.10;;;;;;5004909;28;20419;-78
2022/04/03 13:16:46;;;;;;;10.95;2.38;;;18.20;76.40;;;;;;5003831;28;20022;-73
2022/04/03 13:19:12;;;;;;;6.13;1.20;;;18.60;78.10;;;;;;5001693;28;20026;-79
2022/04/03 13:21:42;;;;;;;5.60;1.13;;;19.70;71.40;;;;;;5000472;28;20045;-78
2022/04/03 13:24:09;;;;;;;6.05;0.98;;;20.30;68.00;;;;;;5002917;28;20034;-79
2022/04/03 13:26:35;;;;;;;3.03;0.70;;;21.10;64.20;;;;;;5000545;28;20045;-79
2022/04/03 13:29:01;;;;;;;5.03;1.08;;;22.10;58.70;;;;;;5003502;28;20050;-76
2022/04/03 13:31:27;;;;;;;5.55;0.95;;;21.50;55.30;;;;;;5003206;28;20026;-77
2022/04/03 13:33:53;;;;;;;7.38;0.93;;;20.40;55.60;;;;;;5001171;28;20423;-75
2022/04/03 13:36:18;;;;;;;4.72;0.80;;;19.20;57.00;;;;;;5008411;28;20062;-77
2022/04/03 13:38:44;;;;;;;5.18;1.10;;;18.70;58.30;;;;;;4983610;28;20125;-78
2022/04/03 13:41:10;;;;;;;4.53;1.05;;;18.50;60.00;;;;;;4997974;28;20022;-77
2022/04/03 13:43:36;;;;;;;8.02;1.27;;;17.70;62.50;;;;;;5010533;28;20073;-76
2022/04/03 13:46:01;;;;;;;4.70;1.02;;;16.70;66.80;;;;;;5017274;28;20034;-77
2022/04/03 13:48:37;;;;;;;3.92;1.20;;;16.10;70.40;;;;;;5009626;28;20101;-79
2022/04/03 13:51:04;;;;;;;8.45;1.38;;;16.00;71.00;;;;;;4997790;28;20030;-77
2022/04/03 13:53:30;;;;;;;2.72;0.93;;;15.60;72.40;;;;;;5002969;28;20041;-76
2022/04/03 13:55:57;;;;;;;3.08;0.90;;;15.70;71.30;;;;;;5004350;28;20022;-77
2022/04/03 13:58:26;;;;;;;4.75;1.10;;;16.00;71.40;;;;;;5002731;28;20034;-80
2022/04/03 14:00:58;;;;;;;2.47;0.90;;;16.90;69.30;;;;;;5002433;28;20080;-78
2022/04/03 14:03:30;;;;;;;5.00;1.05;;;17.70;66.10;;;;;;4999014;28;20034;-77
2022/04/03 14:05:56;;;;;;;2.65;1.13;;;17.90;64.60;;;;;;4985065;28;20121;-75
2022/04/03 14:08:22;;;;;;;3.95;1.05;;;17.60;64.70;;;;;;5008922;28;20073;-75
2022/04/03 14:10:53;;;;;;;2.95;1.00;;;17.20;64.90;;;;;;5008001;28;20057;-78
2022/04/03 14:13:20;;;;;;;6.78;1.10;;;17.20;66.70;;;;;;5008614;28;20018;-78
2022/04/03 14:15:47;;;;;;;5.20;1.80;;;17.50;67.30;;;;;;5029378;28;20069;-76
2022/04/03 14:18:15;;;;;;;6.60;1.38;;;17.70;66.30;;;;;;5037404;28;20021;-77
2022/04/03 14:20:44;;;;;;;7.57;1.63;;;17.00;67.10;;;;;;5020684;28;20026;-75
2022/04/03 14:23:15;;;;;;;6.20;1.70;;;16.20;67.30;;;;;;5037672;28;20022;-75
2022/04/03 14:25:44;;;;;;;8.60;1.52;;;15.40;68.30;;;;;;5020638;28;20052;-72
2022/04/03 14:28:10;;;;;;;6.18;1.05;;;15.10;70.20;;;;;;5004166;28;20041;-73